createdAt,value
2023-05-14T00:00:01.646Z,169.93
2023-05-14T00:01:03.253Z,171.52
2023-05-14T00:02:01.863Z,173.14
2023-05-14T00:03:01.801Z,171.74
2023-05-14T00:04:01.812Z,171.46
2023-05-14T00:05:01.780Z,174.48
2023-05-14T00:06:01.780Z,171.86
2023-05-14T00:07:01.802Z,170.48
2023-05-14T00:08:01.824Z,176.86
2023-05-14T00:09:01.839Z,169.99
2023-05-14T00:10:01.855Z,170.92
2023-05-14T00:11:01.881Z,169.29
2023-05-14T00:12:01.919Z,170.09
2023-05-14T00:13:01.937Z,170.30
2023-05-14T00:14:01.949Z,170.82
2023-05-14T00:15:01.961Z,167.43
2023-05-14T00:16:02.034Z,173.78
2023-05-14T00:17:02.011Z,173.08
2023-05-14T00:18:02.095Z,170.43
2023-05-14T00:19:02.078Z,173.02
2023-05-14T00:20:02.104Z,170.64
2023-05-14T00:21:02.129Z,170.60
2023-05-14T00:22:02.157Z,173.37
2023-05-14T00:23:02.228Z,174.04
2023-05-14T00:24:02.213Z,172.31
2023-05-14T00:25:02.258Z,174.49
2023-05-14T00:26:02.295Z,173.53
2023-05-14T00:27:02.312Z,172.80
2023-05-14T00:28:02.362Z,172.68
2023-05-14T00:29:02.429Z,173.09
2023-05-14T00:30:02.426Z,171.43
2023-05-14T00:31:02.427Z,173.88
2023-05-14T00:32:02.452Z,173.27
2023-05-14T00:33:02.541Z,170.14
2023-05-14T00:34:02.507Z,173.35
2023-05-14T00:35:02.523Z,171.02
2023-05-14T00:36:02.544Z,172.15
2023-05-14T00:37:02.554Z,174.06
2023-05-14T00:38:02.583Z,169.82
2023-05-14T00:39:02.595Z,168.20
2023-05-14T00:40:02.616Z,166.64
2023-05-14T00:41:02.645Z,170.41
2023-05-14T00:42:02.670Z,173.95
2023-05-14T00:43:02.674Z,170.19
2023-05-14T00:44:02.693Z,174.40
2023-05-14T00:45:02.742Z,172.35
2023-05-14T00:46:02.741Z,172.03
2023-05-14T00:47:02.786Z,171.55
2023-05-14T00:48:02.806Z,171.33
2023-05-14T00:49:02.786Z,171.63
2023-05-14T00:50:02.817Z,170.78
2023-05-14T00:51:02.836Z,171.42
2023-05-14T00:52:02.853Z,170.63
2023-05-14T00:53:02.888Z,171.28
2023-05-14T00:54:02.913Z,168.27
2023-05-14T00:55:02.933Z,172.52
2023-05-14T00:56:02.939Z,170.40
2023-05-14T00:57:02.959Z,173.19
2023-05-14T00:58:02.976Z,168.71
2023-05-14T00:59:03.007Z,173.18
2023-05-14T01:00:03.070Z,173.45
2023-05-14T01:01:07.811Z,170.88
2023-05-14T01:02:03.040Z,171.15
2023-05-14T01:03:03.116Z,171.39
2023-05-14T01:04:03.051Z,172.17
2023-05-14T01:05:03.065Z,172.53
2023-05-14T01:06:03.017Z,171.27
2023-05-14T01:07:03.000Z,171.06
2023-05-14T01:08:02.992Z,171.25
2023-05-14T01:09:03.009Z,172.11
2023-05-14T01:10:03.011Z,171.60
2023-05-14T01:11:02.984Z,169.21
2023-05-14T01:12:02.991Z,172.23
2023-05-14T01:13:02.961Z,175.29
2023-05-14T01:14:02.960Z,173.05
2023-05-14T01:15:02.946Z,171.17
2023-05-14T01:16:03.031Z,173.79
2023-05-14T01:17:02.934Z,170.73
2023-05-14T01:18:03.001Z,172.95
2023-05-14T01:19:02.993Z,173.41
2023-05-14T01:20:02.924Z,170.90
2023-05-14T01:21:02.921Z,169.49
2023-05-14T01:22:02.910Z,172.08
2023-05-14T01:23:02.934Z,172.16
2023-05-14T01:24:02.968Z,169.08
2023-05-14T01:25:02.980Z,173.19
2023-05-14T01:26:03.009Z,170.64
2023-05-14T01:27:03.031Z,170.41
2023-05-14T01:28:03.056Z,173.35
2023-05-14T01:29:03.114Z,172.89
2023-05-14T01:30:03.124Z,171.40
2023-05-14T01:31:03.119Z,169.06
2023-05-14T01:32:03.244Z,170.74
2023-05-14T01:33:03.224Z,171.70
2023-05-14T01:34:03.196Z,168.54
2023-05-14T01:35:03.209Z,169.67
2023-05-14T01:36:03.222Z,168.34
2023-05-14T01:37:03.248Z,169.52
2023-05-14T01:38:03.257Z,167.98
2023-05-14T01:39:03.287Z,172.02
2023-05-14T01:40:03.307Z,170.17
2023-05-14T01:41:03.340Z,169.72
2023-05-14T01:42:03.351Z,169.97
2023-05-14T01:43:03.361Z,173.44
2023-05-14T01:44:03.360Z,171.76
2023-05-14T01:45:03.390Z,170.17
2023-05-14T01:46:03.444Z,168.47
2023-05-14T01:47:03.434Z,169.95
2023-05-14T01:48:03.545Z,166.53
2023-05-14T01:49:03.472Z,172.00
2023-05-14T01:50:03.544Z,168.17
2023-05-14T01:51:03.504Z,168.66
2023-05-14T01:52:03.522Z,170.80
2023-05-14T01:53:03.554Z,170.86
2023-05-14T01:54:03.590Z,176.65
2023-05-14T01:55:03.603Z,174.09
2023-05-14T01:56:03.614Z,173.57
2023-05-14T01:57:03.629Z,173.38
2023-05-14T01:58:03.664Z,174.81
2023-05-14T01:59:03.673Z,170.48
2023-05-14T02:00:03.704Z,169.63
2023-05-14T02:01:03.746Z,174.53
2023-05-14T02:02:03.752Z,169.79
2023-05-14T02:03:03.805Z,170.17
2023-05-14T02:04:03.901Z,170.68
2023-05-14T02:05:04.923Z,168.97
2023-05-14T02:06:03.815Z,169.34
2023-05-14T02:07:03.783Z,169.18
2023-05-14T02:08:03.787Z,171.65
2023-05-14T02:09:03.771Z,168.37
2023-05-14T02:10:03.763Z,169.03
2023-05-14T02:11:03.768Z,167.97
2023-05-14T02:12:03.764Z,168.81
2023-05-14T02:13:03.743Z,168.06
2023-05-14T02:14:03.759Z,170.19
2023-05-14T02:15:03.729Z,169.18
2023-05-14T02:16:03.786Z,170.95
2023-05-14T02:17:03.718Z,169.07
2023-05-14T02:18:03.787Z,168.73
2023-05-14T02:19:03.733Z,171.88
2023-05-14T02:20:03.705Z,171.08
2023-05-14T02:21:03.700Z,173.41
2023-05-14T02:22:03.688Z,168.81
2023-05-14T02:23:03.689Z,171.15
2023-05-14T02:24:03.663Z,172.16
2023-05-14T02:25:03.656Z,172.07
2023-05-14T02:26:03.649Z,170.00
2023-05-14T02:27:03.644Z,168.51
2023-05-14T02:28:03.635Z,169.21
2023-05-14T02:29:03.635Z,165.98
2023-05-14T02:30:03.617Z,165.82
2023-05-14T02:31:03.697Z,167.63
2023-05-14T02:32:03.675Z,167.85
2023-05-14T02:33:03.716Z,167.41
2023-05-14T02:34:03.608Z,168.87
2023-05-14T02:35:03.621Z,168.38
2023-05-14T02:36:03.595Z,167.14
2023-05-14T02:37:03.573Z,165.47
2023-05-14T02:38:03.575Z,165.41
2023-05-14T02:39:03.590Z,166.40
2023-05-14T02:40:03.551Z,164.76
2023-05-14T02:41:03.585Z,162.16
2023-05-14T02:42:03.556Z,169.57
2023-05-14T02:43:03.534Z,165.95
2023-05-14T02:44:03.526Z,170.37
2023-05-14T02:45:03.525Z,167.68
2023-05-14T02:46:03.520Z,168.17
2023-05-14T02:47:03.565Z,168.68
2023-05-14T02:48:03.530Z,169.93
2023-05-14T02:49:03.513Z,166.81
2023-05-14T02:50:03.500Z,168.04
2023-05-14T02:51:03.479Z,168.24
2023-05-14T02:52:03.484Z,167.72
2023-05-14T02:53:03.507Z,170.81
2023-05-14T02:54:03.465Z,167.54
2023-05-14T02:55:03.469Z,165.91
2023-05-14T02:56:03.454Z,166.14
2023-05-14T02:57:03.455Z,167.21
2023-05-14T02:58:03.439Z,166.75
2023-05-14T02:59:03.448Z,164.32
2023-05-14T03:00:03.432Z,170.59
2023-05-14T03:01:03.599Z,168.79
2023-05-14T03:02:03.480Z,169.10
2023-05-14T03:03:03.417Z,166.59
2023-05-14T03:04:03.389Z,165.53
2023-05-14T03:05:03.390Z,167.39
2023-05-14T03:06:03.383Z,165.79
2023-05-14T03:07:03.375Z,168.04
2023-05-14T03:08:03.354Z,165.12
2023-05-14T03:09:03.377Z,165.99
2023-05-14T03:10:03.342Z,164.37
2023-05-14T03:11:03.335Z,161.74
2023-05-14T03:12:03.323Z,165.52
2023-05-14T03:13:03.338Z,160.21
2023-05-14T03:14:03.304Z,168.01
2023-05-14T03:15:03.299Z,169.00
2023-05-14T03:16:03.311Z,169.10
2023-05-14T03:17:03.444Z,167.75
2023-05-14T03:18:03.358Z,168.03
2023-05-14T03:19:03.405Z,169.10
2023-05-14T03:20:03.419Z,166.07
2023-05-14T03:21:03.420Z,164.73
2023-05-14T03:22:03.451Z,165.65
2023-05-14T03:23:03.479Z,166.03
2023-05-14T03:24:03.511Z,164.76
2023-05-14T03:25:03.531Z,166.17
2023-05-14T03:26:03.576Z,169.20
2023-05-14T03:27:03.589Z,166.45
2023-05-14T03:28:03.622Z,166.37
2023-05-14T03:29:03.681Z,164.48
2023-05-14T03:30:03.663Z,162.24
2023-05-14T03:31:03.787Z,163.59
2023-05-14T03:32:03.760Z,163.69
2023-05-14T03:33:03.807Z,165.61
2023-05-14T03:34:03.807Z,167.16
2023-05-14T03:35:03.817Z,162.91
2023-05-14T03:36:03.844Z,165.39
2023-05-14T03:37:03.864Z,162.26
2023-05-14T03:38:03.898Z,165.73
2023-05-14T03:39:03.952Z,165.46
2023-05-14T03:40:04.121Z,165.29
2023-05-14T03:41:04.012Z,167.62
2023-05-14T03:42:04.042Z,164.59
2023-05-14T03:43:04.057Z,167.06
2023-05-14T03:44:04.089Z,163.55
2023-05-14T03:45:04.117Z,166.24
2023-05-14T03:46:04.173Z,167.26
2023-05-14T03:47:04.184Z,169.12
2023-05-14T03:48:04.319Z,168.14
2023-05-14T03:49:04.355Z,168.24
2023-05-14T03:50:04.268Z,167.54
2023-05-14T03:51:04.274Z,169.05
2023-05-14T03:52:04.340Z,168.74
2023-05-14T03:53:04.335Z,169.19
2023-05-14T03:54:04.372Z,165.74
2023-05-14T03:55:04.385Z,168.30
2023-05-14T03:56:04.403Z,168.53
2023-05-14T03:57:04.443Z,166.53
2023-05-14T03:58:04.474Z,167.09
2023-05-14T03:59:04.505Z,166.05
2023-05-14T04:00:04.524Z,164.28
2023-05-14T04:01:06.341Z,163.60
2023-05-14T04:02:04.566Z,166.74
2023-05-14T04:03:04.668Z,166.94
2023-05-14T04:04:04.684Z,163.81
2023-05-14T04:05:04.628Z,167.58
2023-05-14T04:06:04.673Z,164.37
2023-05-14T04:07:04.696Z,163.61
2023-05-14T04:08:04.724Z,165.74
2023-05-14T04:09:04.754Z,167.50
2023-05-14T04:10:04.974Z,165.81
2023-05-14T04:11:04.814Z,165.40
2023-05-14T04:12:04.848Z,162.91
2023-05-14T04:13:04.877Z,162.83
2023-05-14T04:14:04.880Z,164.03
2023-05-14T04:15:04.908Z,164.23
2023-05-14T04:16:05.046Z,162.66
2023-05-14T04:17:04.986Z,162.83
2023-05-14T04:18:05.037Z,161.96
2023-05-14T04:19:05.072Z,160.27
2023-05-14T04:20:05.043Z,160.71
2023-05-14T04:21:05.089Z,161.43
2023-05-14T04:22:05.103Z,161.33
2023-05-14T04:23:05.139Z,163.36
2023-05-14T04:24:05.164Z,160.75
2023-05-14T04:25:05.191Z,163.48
2023-05-14T04:26:05.217Z,164.25
2023-05-14T04:27:05.232Z,164.21
2023-05-14T04:28:05.318Z,166.57
2023-05-14T04:29:05.291Z,163.74
2023-05-14T04:30:05.345Z,163.81
2023-05-14T04:31:05.346Z,161.68
2023-05-14T04:32:05.424Z,162.05
2023-05-14T04:33:05.450Z,160.89
2023-05-14T04:34:05.405Z,161.62
2023-05-14T04:35:05.448Z,163.03
2023-05-14T04:36:05.504Z,158.78
2023-05-14T04:37:05.522Z,160.42
2023-05-14T04:38:05.554Z,161.72
2023-05-14T04:39:05.586Z,161.64
2023-05-14T04:40:05.627Z,161.86
2023-05-14T04:41:05.648Z,161.71
2023-05-14T04:42:05.706Z,160.09
2023-05-14T04:43:05.725Z,162.83
2023-05-14T04:44:05.765Z,161.22
2023-05-14T04:45:05.798Z,159.58
2023-05-14T04:46:05.876Z,162.82
2023-05-14T04:47:05.853Z,161.20
2023-05-14T04:48:05.926Z,162.39
2023-05-14T04:49:05.901Z,159.64
2023-05-14T04:50:05.948Z,158.41
2023-05-14T04:51:07.117Z,159.01
2023-05-14T04:52:05.944Z,160.63
2023-05-14T04:53:05.949Z,163.72
2023-05-14T04:54:06.006Z,162.44
2023-05-14T04:55:05.989Z,158.69
2023-05-14T04:56:05.997Z,160.45
2023-05-14T04:57:06.031Z,160.33
2023-05-14T04:58:06.016Z,159.88
2023-05-14T04:59:06.024Z,159.18
2023-05-14T05:00:06.029Z,160.56
2023-05-14T05:01:06.136Z,158.08
2023-05-14T05:02:06.067Z,159.43
2023-05-14T05:03:06.113Z,160.93
2023-05-14T05:04:06.121Z,156.69
2023-05-14T05:05:06.103Z,155.57
2023-05-14T05:06:06.131Z,158.18
2023-05-14T05:07:06.141Z,156.26
2023-05-14T05:08:06.148Z,155.90
2023-05-14T05:09:06.159Z,158.32
2023-05-14T05:10:06.183Z,155.59
2023-05-14T05:11:06.182Z,156.75
2023-05-14T05:12:06.223Z,160.56
2023-05-14T05:13:06.214Z,159.15
2023-05-14T05:14:06.235Z,156.39
2023-05-14T05:15:06.277Z,155.95
2023-05-14T05:16:06.357Z,157.12
2023-05-14T05:17:06.318Z,155.71
2023-05-14T05:18:06.487Z,154.69
2023-05-14T05:19:06.414Z,155.99
2023-05-14T05:20:06.392Z,159.90
2023-05-14T05:21:06.441Z,159.40
2023-05-14T05:22:06.454Z,160.10
2023-05-14T05:23:06.480Z,155.05
2023-05-14T05:24:06.506Z,157.02
2023-05-14T05:25:06.574Z,156.97
2023-05-14T05:26:06.695Z,157.91
2023-05-14T05:27:06.595Z,157.25
2023-05-14T05:28:06.621Z,159.13
2023-05-14T05:29:06.647Z,156.50
2023-05-14T05:30:06.689Z,158.21
2023-05-14T05:31:06.727Z,158.75
2023-05-14T05:32:06.740Z,155.64
2023-05-14T05:33:06.797Z,158.38
2023-05-14T05:34:06.794Z,154.92
2023-05-14T05:35:06.830Z,156.22
2023-05-14T05:36:06.852Z,155.29
2023-05-14T05:37:06.879Z,159.68
2023-05-14T05:38:06.910Z,156.46
2023-05-14T05:39:06.948Z,157.69
2023-05-14T05:40:07.109Z,155.61
2023-05-14T05:41:07.011Z,156.74
2023-05-14T05:42:07.024Z,154.03
2023-05-14T05:43:07.048Z,155.15
2023-05-14T05:44:07.070Z,155.50
2023-05-14T05:45:07.096Z,158.25
2023-05-14T05:46:07.181Z,157.48
2023-05-14T05:47:07.145Z,154.92
2023-05-14T05:48:07.368Z,151.83
2023-05-14T05:49:07.212Z,153.90
2023-05-14T05:50:07.237Z,155.88
2023-05-14T05:51:07.276Z,157.33
2023-05-14T05:52:07.305Z,154.78
2023-05-14T05:53:07.334Z,157.67
2023-05-14T05:54:07.360Z,152.80
2023-05-14T05:55:07.400Z,156.71
2023-05-14T05:56:07.444Z,154.99
2023-05-14T05:57:07.450Z,154.94
2023-05-14T05:58:07.528Z,153.75
2023-05-14T05:59:07.537Z,151.20
2023-05-14T06:00:07.566Z,157.53
2023-05-14T06:01:07.630Z,155.85
2023-05-14T06:02:07.728Z,149.32
2023-05-14T06:03:07.828Z,151.52
2023-05-14T06:04:07.750Z,153.88
2023-05-14T06:05:07.819Z,152.18
2023-05-14T06:06:07.827Z,150.82
2023-05-14T06:07:07.834Z,152.96
2023-05-14T06:08:07.854Z,155.03
2023-05-14T06:09:07.877Z,154.49
2023-05-14T06:10:07.907Z,151.77
2023-05-14T06:11:07.959Z,152.15
2023-05-14T06:12:07.990Z,152.03
2023-05-14T06:13:08.005Z,152.64
2023-05-14T06:14:08.040Z,150.75
2023-05-14T06:15:08.073Z,154.63
2023-05-14T06:16:08.147Z,151.87
2023-05-14T06:17:08.139Z,149.94
2023-05-14T06:18:08.238Z,149.89
2023-05-14T06:19:08.236Z,156.14
2023-05-14T06:20:08.233Z,152.51
2023-05-14T06:21:08.273Z,149.46
2023-05-14T06:22:08.309Z,150.94
2023-05-14T06:23:08.341Z,150.80
2023-05-14T06:24:08.378Z,154.73
2023-05-14T06:25:08.394Z,151.96
2023-05-14T06:26:08.434Z,153.16
2023-05-14T06:27:08.460Z,153.49
2023-05-14T06:28:08.496Z,153.82
2023-05-14T06:29:08.552Z,153.77
2023-05-14T06:30:08.562Z,153.42
2023-05-14T06:31:08.601Z,154.58
2023-05-14T06:32:08.635Z,153.38
2023-05-14T06:33:08.665Z,153.86
2023-05-14T06:34:08.658Z,151.13
2023-05-14T06:35:08.689Z,150.16
2023-05-14T06:36:08.749Z,153.29
2023-05-14T06:37:08.777Z,151.01
2023-05-14T06:38:08.790Z,150.78
2023-05-14T06:39:08.843Z,150.91
2023-05-14T06:40:08.882Z,149.40
2023-05-14T06:41:08.911Z,148.47
2023-05-14T06:42:08.913Z,151.02
2023-05-14T06:43:08.933Z,151.24
2023-05-14T06:44:08.963Z,149.64
2023-05-14T06:45:09.003Z,152.10
2023-05-14T06:46:09.021Z,151.30
2023-05-14T06:47:09.059Z,148.54
2023-05-14T06:48:09.245Z,152.00
2023-05-14T06:49:09.173Z,149.13
2023-05-14T06:50:10.755Z,150.26
2023-05-14T06:51:09.177Z,147.84
2023-05-14T06:52:09.205Z,150.45
2023-05-14T06:53:09.223Z,152.67
2023-05-14T06:54:09.234Z,151.65
2023-05-14T06:55:09.259Z,151.35
2023-05-14T06:56:09.280Z,148.85
2023-05-14T06:57:09.391Z,150.38
2023-05-14T06:58:09.327Z,150.79
2023-05-14T06:59:09.347Z,148.22
2023-05-14T07:00:09.388Z,152.00
2023-05-14T07:01:09.495Z,149.65
2023-05-14T07:02:09.425Z,148.60
2023-05-14T07:03:09.512Z,151.34
2023-05-14T07:04:09.504Z,150.03
2023-05-14T07:05:09.501Z,149.18
2023-05-14T07:06:10.325Z,150.73
2023-05-14T07:07:09.551Z,148.21
2023-05-14T07:08:09.574Z,149.93
2023-05-14T07:09:09.608Z,148.94
2023-05-14T07:10:09.641Z,149.88
2023-05-14T07:11:09.641Z,151.85
2023-05-14T07:12:09.683Z,147.25
2023-05-14T07:13:09.682Z,146.45
2023-05-14T07:14:09.708Z,149.90
2023-05-14T07:15:09.732Z,147.66
2023-05-14T07:16:09.758Z,150.19
2023-05-14T07:17:09.857Z,148.57
2023-05-14T07:18:09.834Z,151.44
2023-05-14T07:19:09.947Z,147.06
2023-05-14T07:20:09.921Z,146.36
2023-05-14T07:21:12.899Z,148.62
2023-05-14T07:22:09.934Z,145.71
2023-05-14T07:23:09.934Z,150.45
2023-05-14T07:24:09.953Z,146.79
2023-05-14T07:25:09.905Z,147.74
2023-05-14T07:26:09.907Z,148.55
2023-05-14T07:27:09.910Z,144.10
2023-05-14T07:28:09.883Z,147.14
2023-05-14T07:29:09.894Z,150.70
2023-05-14T07:30:09.869Z,147.79
2023-05-14T07:31:09.893Z,147.90
2023-05-14T07:32:09.873Z,147.31
2023-05-14T07:33:09.891Z,146.26
2023-05-14T07:34:09.858Z,147.02
2023-05-14T07:35:09.844Z,147.85
2023-05-14T07:36:09.851Z,147.23
2023-05-14T07:37:09.823Z,143.51
2023-05-14T07:38:09.820Z,149.90
2023-05-14T07:39:09.818Z,146.98
2023-05-14T07:40:09.796Z,148.34
2023-05-14T07:41:09.799Z,146.24
2023-05-14T07:42:09.805Z,149.38
2023-05-14T07:43:09.787Z,144.08
2023-05-14T07:44:09.802Z,147.56
2023-05-14T07:45:09.788Z,145.93
2023-05-14T07:46:09.761Z,145.45
2023-05-14T07:47:09.825Z,146.68
2023-05-14T07:48:09.840Z,148.72
2023-05-14T07:49:09.736Z,149.89
2023-05-14T07:50:09.741Z,146.75
2023-05-14T07:51:09.734Z,144.61
2023-05-14T07:52:09.905Z,143.46
2023-05-14T07:53:09.715Z,146.74
2023-05-14T07:54:09.714Z,149.22
2023-05-14T07:55:09.705Z,146.66
2023-05-14T07:56:09.699Z,146.30
2023-05-14T07:57:09.690Z,147.17
2023-05-14T07:58:09.684Z,143.62
2023-05-14T07:59:09.679Z,144.24
2023-05-14T08:00:09.684Z,145.47
2023-05-14T08:01:09.665Z,147.01
2023-05-14T08:02:09.703Z,148.31
2023-05-14T08:03:09.677Z,146.78
2023-05-14T08:04:09.748Z,147.44
2023-05-14T08:05:09.641Z,146.46
2023-05-14T08:06:09.645Z,144.98
2023-05-14T08:07:09.651Z,145.56
2023-05-14T08:08:09.631Z,144.25
2023-05-14T08:09:09.618Z,147.28
2023-05-14T08:10:09.618Z,143.82
2023-05-14T08:11:09.640Z,147.20
2023-05-14T08:12:09.597Z,144.69
2023-05-14T08:13:09.597Z,147.46
2023-05-14T08:14:09.578Z,148.19
2023-05-14T08:15:09.570Z,145.57
2023-05-14T08:16:09.574Z,145.98
2023-05-14T08:17:09.723Z,148.85
2023-05-14T08:18:09.624Z,145.27
2023-05-14T08:19:09.574Z,145.91
2023-05-14T08:20:09.590Z,143.97
2023-05-14T08:21:09.617Z,145.74
2023-05-14T08:22:09.664Z,143.63
2023-05-14T08:23:09.702Z,146.06
2023-05-14T08:24:09.726Z,146.32
2023-05-14T08:25:09.765Z,144.72
2023-05-14T08:26:09.803Z,144.47
2023-05-14T08:27:09.825Z,143.19
2023-05-14T08:28:09.835Z,143.83
2023-05-14T08:29:10.779Z,145.75
2023-05-14T08:30:09.909Z,144.01
2023-05-14T08:31:09.956Z,143.44
2023-05-14T08:32:22.015Z,144.82
2023-05-14T08:33:11.033Z,145.01
2023-05-14T08:34:09.954Z,144.56
2023-05-14T08:35:09.953Z,143.71
2023-05-14T08:36:09.945Z,147.25
2023-05-14T08:37:09.951Z,143.99
2023-05-14T08:38:09.927Z,143.37
2023-05-14T08:39:09.930Z,146.01
2023-05-14T08:40:09.918Z,143.90
2023-05-14T08:41:10.434Z,144.84
2023-05-14T08:42:09.915Z,144.48
2023-05-14T08:43:09.898Z,143.17
2023-05-14T08:44:09.894Z,141.46
2023-05-14T08:45:09.887Z,144.72
2023-05-14T08:46:09.915Z,143.09
2023-05-14T08:47:09.952Z,142.12
2023-05-14T08:48:10.078Z,144.89
2023-05-14T08:49:10.107Z,147.96
2023-05-14T08:50:10.076Z,144.75
2023-05-14T08:51:10.089Z,145.73
2023-05-14T08:52:10.134Z,143.82
2023-05-14T08:53:10.193Z,144.45
2023-05-14T08:54:10.225Z,141.85
2023-05-14T08:55:10.248Z,146.36
2023-05-14T08:56:10.278Z,142.51
2023-05-14T08:57:10.337Z,143.08
2023-05-14T08:58:10.352Z,147.30
2023-05-14T08:59:10.387Z,141.62
2023-05-14T09:00:10.417Z,145.28
2023-05-14T09:01:10.468Z,142.00
2023-05-14T09:02:10.558Z,139.31
2023-05-14T09:03:10.586Z,142.25
2023-05-14T09:04:10.559Z,143.63
2023-05-14T09:05:10.560Z,143.69
2023-05-14T09:06:10.603Z,144.03
2023-05-14T09:07:10.676Z,143.42
2023-05-14T09:08:10.640Z,139.84
2023-05-14T09:09:10.681Z,143.85
2023-05-14T09:10:10.718Z,143.39
2023-05-14T09:11:10.738Z,143.16
2023-05-14T09:12:10.765Z,144.87
2023-05-14T09:13:10.791Z,144.25
2023-05-14T09:14:10.824Z,143.67
2023-05-14T09:15:10.849Z,143.78
2023-05-14T09:16:10.913Z,141.82
2023-05-14T09:17:10.907Z,143.21
2023-05-14T09:18:10.958Z,141.84
2023-05-14T09:19:11.112Z,139.59
2023-05-14T09:20:11.000Z,143.71
2023-05-14T09:21:10.985Z,144.60
2023-05-14T09:22:11.019Z,142.58
2023-05-14T09:23:11.055Z,143.56
2023-05-14T09:24:11.069Z,145.75
2023-05-14T09:25:11.106Z,141.11
2023-05-14T09:26:11.122Z,139.89
2023-05-14T09:27:11.155Z,140.06
2023-05-14T09:28:11.185Z,144.56
2023-05-14T09:29:11.205Z,141.31
2023-05-14T09:30:11.255Z,143.83
2023-05-14T09:31:11.326Z,143.29
2023-05-14T09:32:11.292Z,142.42
2023-05-14T09:33:11.302Z,143.32
2023-05-14T09:34:11.330Z,141.71
2023-05-14T09:35:11.365Z,141.04
2023-05-14T09:36:11.382Z,142.74
2023-05-14T09:37:11.419Z,142.27
2023-05-14T09:38:11.429Z,139.91
2023-05-14T09:39:11.457Z,143.48
2023-05-14T09:40:11.484Z,142.78
2023-05-14T09:41:11.512Z,139.65
2023-05-14T09:42:11.541Z,141.06
2023-05-14T09:43:11.563Z,143.61
2023-05-14T09:44:11.598Z,140.40
2023-05-14T09:45:11.607Z,143.53
2023-05-14T09:46:11.636Z,139.57
2023-05-14T09:47:11.711Z,140.83
2023-05-14T09:48:11.774Z,141.47
2023-05-14T09:49:11.703Z,142.09
2023-05-14T09:50:11.757Z,142.75
2023-05-14T09:51:11.744Z,139.47
2023-05-14T09:52:11.770Z,143.72
2023-05-14T09:53:11.790Z,142.87
2023-05-14T09:54:11.834Z,142.40
2023-05-14T09:55:11.832Z,139.56
2023-05-14T09:56:11.860Z,141.71
2023-05-14T09:57:11.882Z,138.32
2023-05-14T09:58:11.919Z,139.52
2023-05-14T09:59:11.934Z,140.17
2023-05-14T10:00:11.958Z,141.85
2023-05-14T10:01:12.034Z,142.22
2023-05-14T10:02:11.997Z,140.33
2023-05-14T10:03:12.103Z,144.53
2023-05-14T10:04:12.079Z,139.23
2023-05-14T10:05:12.068Z,139.37
2023-05-14T10:06:12.080Z,140.36
2023-05-14T10:07:12.104Z,141.94
2023-05-14T10:08:12.133Z,142.12
2023-05-14T10:09:12.145Z,140.96
2023-05-14T10:10:12.157Z,141.22
2023-05-14T10:11:12.192Z,140.71
2023-05-14T10:12:12.244Z,143.99
2023-05-14T10:13:12.248Z,142.75
2023-05-14T10:14:12.284Z,142.60
2023-05-14T10:15:12.297Z,143.94
2023-05-14T10:16:12.317Z,141.24
2023-05-14T10:17:12.457Z,146.01
2023-05-14T10:18:12.422Z,141.64
2023-05-14T10:19:12.442Z,140.32
2023-05-14T10:20:12.441Z,140.17
2023-05-14T10:21:12.455Z,141.18
2023-05-14T10:22:12.470Z,142.94
2023-05-14T10:23:12.497Z,142.13
2023-05-14T10:24:12.527Z,141.50
2023-05-14T10:25:12.541Z,141.43
2023-05-14T10:26:12.575Z,139.15
2023-05-14T10:27:12.590Z,141.04
2023-05-14T10:28:12.626Z,143.61
2023-05-14T10:29:12.625Z,139.07
2023-05-14T10:30:12.678Z,140.70
2023-05-14T10:31:12.731Z,141.49
2023-05-14T10:32:12.727Z,142.25
2023-05-14T10:33:12.768Z,141.20
2023-05-14T10:34:12.765Z,139.26
2023-05-14T10:35:12.780Z,142.75
2023-05-14T10:36:12.794Z,142.60
2023-05-14T10:37:12.826Z,140.12
2023-05-14T10:38:12.837Z,139.18
2023-05-14T10:39:12.865Z,139.61
2023-05-14T10:40:12.906Z,139.79
2023-05-14T10:41:12.932Z,142.98
2023-05-14T10:42:12.967Z,139.55
2023-05-14T10:43:13.001Z,139.02
2023-05-14T10:44:13.054Z,139.91
2023-05-14T10:45:13.074Z,137.98
2023-05-14T10:46:13.143Z,136.94
2023-05-14T10:47:13.163Z,134.88
2023-05-14T10:48:13.235Z,138.21
2023-05-14T10:49:13.228Z,137.03
2023-05-14T10:50:13.261Z,137.23
2023-05-14T10:51:13.390Z,138.51
2023-05-14T10:52:13.301Z,134.36
2023-05-14T10:53:13.354Z,134.96
2023-05-14T10:54:13.346Z,136.25
2023-05-14T10:55:13.361Z,135.25
2023-05-14T10:56:13.442Z,138.12
2023-05-14T10:57:13.411Z,136.42
2023-05-14T10:58:13.445Z,133.76
2023-05-14T10:59:13.481Z,136.61
2023-05-14T11:00:13.487Z,136.63
2023-05-14T11:01:13.573Z,133.73
2023-05-14T11:02:13.536Z,136.37
2023-05-14T11:03:13.701Z,137.70
2023-05-14T11:04:13.742Z,134.47
2023-05-14T11:05:13.593Z,137.08
2023-05-14T11:06:13.614Z,132.65
2023-05-14T11:07:13.651Z,133.19
2023-05-14T11:08:13.676Z,133.02
2023-05-14T11:09:13.708Z,135.96
2023-05-14T11:10:13.747Z,134.23
2023-05-14T11:11:13.761Z,134.34
2023-05-14T11:12:13.766Z,132.16
2023-05-14T11:13:13.790Z,132.42
2023-05-14T11:14:13.811Z,132.59
2023-05-14T11:15:13.882Z,133.15
2023-05-14T11:16:22.786Z,133.36
2023-05-14T11:17:14.897Z,133.60
2023-05-14T11:18:13.881Z,133.87
2023-05-14T11:19:14.035Z,134.79
2023-05-14T11:20:13.834Z,130.86
2023-05-14T11:21:13.884Z,131.38
2023-05-14T11:22:13.817Z,132.06
2023-05-14T11:23:13.833Z,130.26
2023-05-14T11:24:13.813Z,130.62
2023-05-14T11:25:13.823Z,131.91
2023-05-14T11:26:13.860Z,125.70
2023-05-14T11:27:13.791Z,127.25
2023-05-14T11:28:13.790Z,130.47
2023-05-14T11:29:13.777Z,127.59
2023-05-14T11:30:13.759Z,124.19
2023-05-14T11:31:13.781Z,123.92
2023-05-14T11:32:13.746Z,124.82
2023-05-14T11:33:13.823Z,122.25
2023-05-14T11:34:13.737Z,118.15
2023-05-14T11:35:13.756Z,118.09
2023-05-14T11:36:13.737Z,119.15
2023-05-14T11:37:13.762Z,115.44
2023-05-14T11:38:13.789Z,111.61
2023-05-14T11:39:13.795Z,112.66
2023-05-14T11:40:13.819Z,118.51
2023-05-14T11:41:13.858Z,114.86
2023-05-14T11:42:13.882Z,112.71
2023-05-14T11:43:13.917Z,111.22
2023-05-14T11:44:13.920Z,109.86
2023-05-14T11:45:13.987Z,111.75
2023-05-14T11:46:14.026Z,107.68
2023-05-14T11:47:14.001Z,110.91
2023-05-14T11:48:14.073Z,110.95
2023-05-14T11:49:14.045Z,107.81
2023-05-14T11:50:14.085Z,108.63
2023-05-14T11:51:14.112Z,110.58
2023-05-14T11:52:14.125Z,110.61
2023-05-14T11:53:14.149Z,112.01
2023-05-14T11:54:14.201Z,104.01
2023-05-14T11:55:14.236Z,106.65
2023-05-14T11:56:14.224Z,108.83
2023-05-14T11:57:14.250Z,109.99
2023-05-14T11:58:14.291Z,113.73
2023-05-14T11:59:14.296Z,116.47
2023-05-14T12:00:14.323Z,114.09
2023-05-14T12:01:14.378Z,114.58
2023-05-14T12:02:14.374Z,111.67
2023-05-14T12:03:14.468Z,112.35
2023-05-14T12:04:14.555Z,111.90
2023-05-14T12:05:14.437Z,118.79
2023-05-14T12:06:14.460Z,117.33
2023-05-14T12:07:14.499Z,112.50
2023-05-14T12:08:14.513Z,114.09
2023-05-14T12:09:14.542Z,114.29
2023-05-14T12:10:14.639Z,112.20
2023-05-14T12:11:14.587Z,120.68
2023-05-14T12:12:14.621Z,116.59
2023-05-14T12:13:14.654Z,115.84
2023-05-14T12:14:14.691Z,119.55
2023-05-14T12:15:14.701Z,122.56
2023-05-14T12:16:14.765Z,119.61
2023-05-14T12:17:14.751Z,123.71
2023-05-14T12:18:24.150Z,118.18
2023-05-14T12:19:15.818Z,118.55
2023-05-14T12:20:14.785Z,119.45
2023-05-14T12:21:14.759Z,121.12
2023-05-14T12:22:14.763Z,124.62
2023-05-14T12:23:14.760Z,126.55
2023-05-14T12:24:14.743Z,128.98
2023-05-14T12:25:14.745Z,127.51
2023-05-14T12:26:14.729Z,130.37
2023-05-14T12:27:14.737Z,128.73
2023-05-14T12:28:14.747Z,127.72